Terminal Aerodrome Forecast
Issued by NWS

Home | Current Version | Previous Version | Text Only | Print | Product List | Glossary On
Versions: 1 2 3 4 5 6 7 8 9 10 11 12 13 14 15 16 17 18
000
FTUS42 KTAE 010700 AAA
TAFECP
TAF AMD
KECP 010759Z 0108/0206 03008KT 4SM BR OVC004
     FM011600 08006KT P6SM BKN015
     FM020300 00000KT 4SM BR OVC007=

USA.gov is the U.S. government's official web portal to all federal, state and local government web resources and services.